LGKV/KVA METAR and TAF weather

Enter ICAO airport designator
Station Type Date Time Source
LGKV METAR 2021/09/28 15:50 UTC NOAA

LGKV 281550Z 09003KT 9999 FEW030 BKN070 21/12 Q1017


Station Type Date Time Source
LGKV Decoded METAR 2021/09/28 15:50 UTC NOAA

Chrysoupoli Airport , Greece (LGKV) 40-59N 024-36E 5M
Sep 28, 2021 - 11:50 AM EDT / 2021.09.28 1550 UTC
Wind: from the E (090 degrees) at 3 MPH (3 KT):0
Visibility: greater than 7 mile(s):0
Sky conditions: mostly cloudy
Temperature: 69 F (21 C)
Dew Point: 53 F (12 C)
Relative Humidity: 56%
Pressure (altimeter): 30.03 in. Hg (1017 hPa)
ob: LGKV 281550Z 09003KT 9999 FEW030 BKN070 21/12 Q1017
cycle: 16

Station Type Date Time Source
LGKV TAF 2021/09/28 12:12 UTC NOAA

TAF LGKV 281100Z 2812/2912 VRB03KT 9999 SCT025 BKN080 PROB40
TEMPO 2812/2909 5000 RA FEW008 BKN025 OVC080 PROB30
TEMPO 2815/2824 3000 TSRA FEW008 FEW018CB BKN020 BKN070

Example: see airport list